Gotebo, OK (73041)

4:34 PM CDT on September 02, 2014 (GMT -0500)
Hobart Municipal | Change Station
CLOSE
Current Station
Airport
Location: Hobart,
Elevation: 1565 ft
Nearby Weather Stations

Elev 1565 ft 34.99 °N, 99.05 °W | Updated 41 minutes ago

Clear
Clear
97 °F
Feels Like 101 °F
N
18
Wind Variable Wind from SSE
Gusts 28 mph

Today
High -- | Low -- °F
--% Chance of Precip.
Yesterday
High -- | Low -- °F
Precip. -- in
7:08 AM 8:00 PM
First Quarter, 55% visible
Pressure 29.82 in
Visibility 10.0 miles
Clouds Clear
Heat Index 101 °F
Dew Point 67 °F
Humidity 37%
Rainfall 0.29 in
Snow Depth Not available.
UV 7 out of 12
Pollen 10.50 out of 12
Air Quality Not available.
Flu Activity Not available.
METAR KHBR 022053Z AUTO 16016G24KT 10SM CLR 36/19 A2989 RMK AO2 PK WND 19029/2032 SLP098 T03610194 58018

More Conditions Fewer Conditions

Pressure 29.82 in
Visibility 10.0 miles
Clouds Clear
Heat Index 101 °F
Dew Point 67 °F
Humidity 37%
Rainfall 0.29 in
Snow Depth Not available.
UV 7 out of 12
Pollen 10.50 out of 12
Air Quality Not available.
Flu Activity Not available.
METAR KHBR 022053Z AUTO 16016G24KT 10SM CLR 36/19 A2989 RMK AO2 PK WND 19029/2032 SLP098 T03610194 58018

More Conditions Fewer Conditions

10-Day Weather Forecast

Almanac

Astronomy

Sep. 02, 2014 Rise Set
Actual Time 7:08 AM CDT 8:00 PM CDT
Civil Twilight 6:43 AM CDT 8:26 PM CDT
Nautical Twilight 6:12 AM CDT 8:57 PM CDT
Astronomical Twilight 5:40 AM CDT 9:28 PM CDT
Moon 2:38 PM CDT 12:20 AM CDT
Length of Visible Light 13h 43m
Length of Day
12h 51m
Tomorrow will be 2m 7s shorter.
First Quarter, 55% of the Moon is Illuminated
Today
First Quarter
Sep 8
Full
Sep 15
Last Quarter
Sep 24
New
Oct 1
First Quarter

Today's Extremes

State Highs State Lows

Community

WunderPhotos

Upload Photos

1,749,776 photos uploaded!

Nearby

Snow Depth

Station Depth Elevation
No new snow has been reported.

Earthquake Activity

City Distance Mag. Time & Date
Helena, Oklahoma 102 miles 3.2 3:05 AM CDT
2014-09-02
Medford, Oklahoma 125 miles 3.3 11:58 PM CDT
2014-09-01
Perry, Oklahoma 113 miles 3.1 6:46 AM CDT
2014-09-01
Jones, Oklahoma 97 miles 3.1 1:49 PM CDT
2014-08-31
Minimum magnitude displayed is 2.5.

Coastal Water Temperatures

Place Temperature
No Stations Reporting

Nearby Weather Stations